Time;durP1;ratioP1;P1;durP2;ratioP2;P2;SDS_P1;SDS_P2;PMS_P1;PMS_P2;Temp;Humidity;BMP_temperature;BMP_pressure;BME280_temperature;BME280_humidity;BME280_pressure;Samples;Min_cycle;Max_cycle;Signal;HPM_P1;HPM_P2
2022/11/25 00:01:54;;;;;;;181.97;72.10;;;3.70;99.90;;;;;;5117511;28;20203;-66
2022/11/25 00:04:22;;;;;;;191.30;75.70;;;3.70;99.90;;;;;;5117167;28;20228;-71
2022/11/25 00:06:51;;;;;;;203.70;79.27;;;3.70;99.90;;;;;;5117134;27;20232;-66
2022/11/25 00:09:19;;;;;;;167.67;72.47;;;3.70;99.90;;;;;;5113597;28;20325;-67
2022/11/25 00:11:49;;;;;;;179.27;72.37;;;3.60;99.90;;;;;;5114143;27;20207;-68
2022/11/25 00:14:17;;;;;;;179.50;72.07;;;3.70;99.90;;;;;;5114031;28;20663;-70
2022/11/25 00:16:46;;;;;;;184.90;71.13;;;3.60;99.90;;;;;;5113802;28;20232;-88
2022/11/25 00:19:16;;;;;;;171.17;68.70;;;3.60;99.90;;;;;;5115328;28;20683;-68
2022/11/25 00:21:44;;;;;;;177.93;70.03;;;3.60;99.90;;;;;;5114146;28;20207;-81
2022/11/25 00:24:15;;;;;;;164.97;67.57;;;3.80;99.90;;;;;;5115411;28;20570;-67
2022/11/25 00:26:43;;;;;;;177.37;69.63;;;3.80;99.90;;;;;;5117032;28;20234;-66
2022/11/25 00:29:14;;;;;;;167.07;69.57;;;3.70;99.90;;;;;;5114648;28;20207;-71
2022/11/25 00:31:42;;;;;;;192.67;73.77;;;3.70;99.90;;;;;;5114373;28;20182;-82
2022/11/25 00:34:13;;;;;;;178.73;71.93;;;3.70;99.90;;;;;;5114545;28;20232;-85
2022/11/25 00:36:41;;;;;;;186.03;74.27;;;3.70;99.90;;;;;;5112586;28;20225;-70
2022/11/25 00:39:11;;;;;;;175.47;74.17;;;3.70;99.90;;;;;;5114620;27;20527;-67
2022/11/25 00:44:37;;;;;;;195.23;73.47;;;3.60;99.90;;;;;;5055258;28;20211;-66
2022/11/25 00:47:09;;;;;;;195.47;78.63;;;3.60;99.90;;;;;;5070475;28;20217;-85
2022/11/25 00:49:37;;;;;;;184.77;72.50;;;3.80;99.90;;;;;;5070254;28;20273;-80
2022/11/25 00:52:06;;;;;;;197.50;77.27;;;3.70;99.90;;;;;;5070282;28;20592;-78
2022/11/25 00:54:35;;;;;;;201.17;79.97;;;3.70;99.90;;;;;;5070374;28;20203;-66
2022/11/25 00:57:03;;;;;;;201.07;78.03;;;3.60;99.90;;;;;;5070339;28;20333;-86
2022/11/25 00:59:33;;;;;;;206.27;83.83;;;3.60;99.90;;;;;;5053535;28;20208;-67
2022/11/25 01:02:02;;;;;;;207.87;82.73;;;3.60;99.90;;;;;;5053662;28;20211;-87
2022/11/25 01:04:30;;;;;;;208.40;85.77;;;3.60;99.90;;;;;;5069993;28;20354;-67
2022/11/25 01:06:59;;;;;;;202.47;81.10;;;3.70;99.90;;;;;;5072446;28;20207;-81
2022/11/25 01:09:28;;;;;;;201.77;80.77;;;3.60;99.90;;;;;;5057955;28;20195;-67
2022/11/25 01:11:56;;;;;;;170.93;73.63;;;3.60;99.90;;;;;;5072206;28;20218;-67
2022/11/25 01:14:25;;;;;;;178.33;74.30;;;3.60;99.90;;;;;;5070870;28;20222;-81
2022/11/25 01:16:55;;;;;;;173.73;74.77;;;3.60;99.90;;;;;;5070359;28;20225;-82
2022/11/25 01:19:24;;;;;;;205.07;78.27;;;3.60;99.90;;;;;;5070985;28;20278;-82
2022/11/25 01:21:53;;;;;;;187.67;77.77;;;3.60;99.90;;;;;;5090672;28;20563;-67
2022/11/25 01:24:21;;;;;;;183.13;76.30;;;3.60;99.90;;;;;;5113388;28;20572;-86
2022/11/25 01:26:54;;;;;;;176.10;77.13;;;3.50;99.90;;;;;;5116743;28;20241;-68
2022/11/25 01:29:23;;;;;;;186.77;75.77;;;3.50;99.90;;;;;;5113087;28;20205;-72
2022/11/25 01:31:56;;;;;;;171.40;71.80;;;3.50;99.90;;;;;;5113658;28;20200;-66
2022/11/25 01:34:26;;;;;;;186.37;76.03;;;3.40;99.90;;;;;;5113076;28;20747;-72
2022/11/25 01:36:57;;;;;;;189.47;73.80;;;3.50;99.90;;;;;;5112946;28;20200;-74
2022/11/25 01:39:25;;;;;;;181.13;76.10;;;3.50;99.90;;;;;;5113363;28;20189;-81
2022/11/25 01:41:59;;;;;;;177.87;77.10;;;3.50;99.90;;;;;;5115416;28;20189;-72
2022/11/25 01:44:29;;;;;;;173.70;70.73;;;3.50;99.90;;;;;;5116018;28;20189;-70
2022/11/25 01:47:07;;;;;;;166.30;69.47;;;3.40;99.90;;;;;;5112043;28;20219;-67
2022/11/25 01:49:39;;;;;;;165.33;68.73;;;3.40;99.90;;;;;;5113033;28;20192;-85
2022/11/25 01:52:14;;;;;;;149.77;66.67;;;3.40;99.90;;;;;;5113326;27;20200;-74
2022/11/25 01:54:48;;;;;;;149.23;61.60;;;3.40;99.90;;;;;;5114034;28;20688;-66
2022/11/25 01:57:24;;;;;;;164.53;64.80;;;3.40;99.90;;;;;;5111827;28;20224;-72
2022/11/25 01:59:57;;;;;;;165.47;61.93;;;3.40;99.90;;;;;;5112098;28;20537;-68
2022/11/25 02:02:29;;;;;;;155.53;65.00;;;3.40;99.90;;;;;;5114158;28;20197;-92
2022/11/25 02:05:00;;;;;;;163.13;66.00;;;3.50;99.90;;;;;;5113990;27;20204;-67
2022/11/25 02:07:31;;;;;;;152.33;65.97;;;3.40;99.90;;;;;;5113968;28;20553;-93
2022/11/25 02:10:01;;;;;;;159.33;64.87;;;3.40;99.90;;;;;;5117273;28;20204;-85
2022/11/25 02:12:30;;;;;;;146.80;65.10;;;3.40;99.90;;;;;;5116188;28;20192;-76
2022/11/25 02:15:00;;;;;;;161.97;64.03;;;3.40;99.90;;;;;;5114819;28;20231;-86
2022/11/25 02:17:30;;;;;;;147.67;60.90;;;3.50;99.90;;;;;;5116347;28;20208;-67
2022/11/25 02:20:03;;;;;;;150.60;61.47;;;3.50;99.90;;;;;;5114742;28;20225;-85
2022/11/25 02:22:51;;;;;;;153.97;61.73;;;3.50;99.90;;;;;;5118240;28;20698;-79
2022/11/25 02:25:24;;;;;;;163.70;65.97;;;3.50;99.90;;;;;;5114729;28;20246;-67
2022/11/25 02:27:57;;;;;;;158.43;64.83;;;3.50;99.90;;;;;;5099180;27;20217;-67
2022/11/25 02:30:26;;;;;;;160.63;69.30;;;3.50;99.90;;;;;;5116322;28;20193;-68
2022/11/25 02:32:54;;;;;;;171.90;69.40;;;3.50;99.90;;;;;;5116348;28;20642;-88
2022/11/25 02:35:32;;;;;;;159.73;66.93;;;3.50;99.90;;;;;;5116306;28;20313;-67
2022/11/25 02:38:06;;;;;;;158.83;67.60;;;3.40;99.90;;;;;;5114360;28;20205;-75
2022/11/25 02:40:43;;;;;;;174.33;72.43;;;3.40;99.90;;;;;;5114207;28;20198;-69
2022/11/25 02:43:13;;;;;;;172.70;69.43;;;3.40;99.90;;;;;;5114261;28;20290;-68
2022/11/25 02:45:49;;;;;;;158.27;68.30;;;3.50;99.90;;;;;;5114220;28;20192;-68
2022/11/25 02:48:19;;;;;;;160.80;66.97;;;3.40;99.90;;;;;;5114173;28;20244;-69
2022/11/25 02:50:53;;;;;;;152.37;65.97;;;3.40;99.90;;;;;;5114284;28;20219;-76
2022/11/25 02:53:22;;;;;;;148.73;66.20;;;3.40;99.90;;;;;;5115069;28;20191;-67
2022/11/25 02:55:52;;;;;;;160.17;63.77;;;3.40;99.90;;;;;;5113679;28;20204;-76
2022/11/25 02:58:22;;;;;;;162.70;68.87;;;3.50;99.90;;;;;;5113848;28;20205;-68
2022/11/25 03:00:51;;;;;;;149.87;62.87;;;3.60;99.90;;;;;;5115122;27;20671;-71
2022/11/25 03:03:19;;;;;;;147.20;64.57;;;3.60;99.90;;;;;;5114696;28;20233;-74
2022/11/25 03:05:48;;;;;;;166.33;69.07;;;3.60;99.90;;;;;;5114731;28;20594;-67
2022/11/25 03:08:16;;;;;;;143.60;63.70;;;3.60;99.90;;;;;;5113404;28;20201;-67
2022/11/25 03:10:44;;;;;;;146.33;65.17;;;3.60;99.90;;;;;;5113580;28;20259;-67
2022/11/25 03:13:16;;;;;;;165.93;66.10;;;3.50;99.90;;;;;;5114789;28;20593;-67
2022/11/25 03:15:44;;;;;;;146.77;61.70;;;3.50;99.90;;;;;;5113323;28;20303;-71
2022/11/25 03:18:13;;;;;;;150.23;62.90;;;3.50;99.90;;;;;;5113019;28;20314;-76
2022/11/25 03:20:42;;;;;;;150.30;62.63;;;3.50;99.90;;;;;;5113356;28;20203;-67
2022/11/25 03:23:10;;;;;;;145.93;62.40;;;3.50;99.90;;;;;;5114598;28;20193;-67
2022/11/25 03:25:39;;;;;;;150.63;63.93;;;3.50;99.90;;;;;;5114340;28;20194;-73
2022/11/25 03:28:07;;;;;;;146.93;61.13;;;3.50;99.90;;;;;;5112958;28;20651;-68
2022/11/25 03:30:37;;;;;;;154.27;65.10;;;3.50;99.90;;;;;;5114299;28;20250;-67
2022/11/25 03:33:05;;;;;;;157.13;61.43;;;3.50;99.90;;;;;;5112552;28;20206;-68
2022/11/25 03:35:33;;;;;;;157.33;65.63;;;3.50;99.90;;;;;;5073515;28;20285;-68
2022/11/25 03:38:03;;;;;;;139.33;61.57;;;3.50;99.90;;;;;;5072416;28;20229;-68
2022/11/25 03:40:35;;;;;;;145.30;62.77;;;3.50;99.90;;;;;;5072091;28;20766;-69
2022/11/25 03:43:04;;;;;;;137.33;60.30;;;3.40;99.90;;;;;;5072065;28;20217;-67
2022/11/25 03:45:33;;;;;;;149.90;66.07;;;3.50;99.90;;;;;;5072054;28;20198;-67
2022/11/25 03:48:06;;;;;;;142.83;58.63;;;3.50;99.90;;;;;;5071916;28;20212;-66
2022/11/25 03:50:37;;;;;;;139.50;60.77;;;3.50;99.90;;;;;;5072003;28;20673;-70
2022/11/25 03:53:05;;;;;;;149.93;61.33;;;3.50;99.90;;;;;;5073268;28;20223;-66
2022/11/25 03:55:35;;;;;;;133.87;61.33;;;3.50;99.90;;;;;;5071942;28;20201;-68
2022/11/25 03:58:04;;;;;;;149.77;60.50;;;3.50;99.90;;;;;;5071805;28;20251;-67
2022/11/25 04:00:33;;;;;;;145.70;59.03;;;3.50;99.90;;;;;;5071628;28;20207;-66
2022/11/25 04:03:03;;;;;;;142.07;60.33;;;3.50;99.90;;;;;;5074074;28;20225;-66
2022/11/25 04:05:34;;;;;;;144.90;58.70;;;3.50;99.90;;;;;;5083192;28;20268;-66
2022/11/25 04:08:06;;;;;;;139.53;61.00;;;3.50;99.90;;;;;;5084832;28;20208;-84
2022/11/25 04:10:37;;;;;;;154.50;60.50;;;3.50;99.90;;;;;;5126014;27;20202;-66
2022/11/25 04:13:05;;;;;;;145.27;60.57;;;3.50;99.90;;;;;;5091770;28;20200;-66
2022/11/25 04:15:44;;;;;;;148.30;59.97;;;3.50;99.90;;;;;;5091730;28;20199;-68
2022/11/25 04:18:13;;;;;;;148.70;59.97;;;3.50;99.90;;;;;;5071127;28;20270;-68
2022/11/25 04:20:44;;;;;;;135.77;59.13;;;3.50;99.90;;;;;;5071312;28;20198;-76
2022/11/25 04:23:14;;;;;;;138.27;57.70;;;3.50;99.90;;;;;;5071271;28;20206;-67
2022/11/25 04:25:50;;;;;;;151.20;61.20;;;3.50;99.90;;;;;;5071268;28;20215;-67
2022/11/25 04:28:47;;;;;;;137.00;59.33;;;3.40;99.90;;;;;;5090354;28;20594;-69
2022/11/25 04:31:16;;;;;;;143.37;58.57;;;3.40;99.90;;;;;;5073413;28;20292;-69
2022/11/25 04:33:45;;;;;;;146.30;61.07;;;3.40;99.90;;;;;;5095159;28;20348;-73
2022/11/25 04:36:21;;;;;;;140.80;60.97;;;3.40;99.90;;;;;;5093572;28;20680;-73
2022/11/25 04:38:50;;;;;;;143.97;61.87;;;3.30;99.90;;;;;;5110361;28;20277;-68
2022/11/25 04:41:19;;;;;;;143.90;59.77;;;3.40;99.90;;;;;;5110154;28;20835;-67
2022/11/25 04:43:48;;;;;;;153.93;65.00;;;3.60;99.90;;;;;;5108949;28;20212;-68
2022/11/25 04:46:19;;;;;;;148.03;63.37;;;3.70;99.90;;;;;;5092426;28;20392;-68
2022/11/25 04:48:50;;;;;;;159.40;62.20;;;3.70;99.90;;;;;;5085187;28;20226;-72
2022/11/25 04:51:21;;;;;;;152.13;64.13;;;3.80;99.90;;;;;;5089059;28;20230;-70
2022/11/25 04:53:53;;;;;;;145.83;58.30;;;3.80;99.90;;;;;;5072196;28;20206;-67
2022/11/25 04:56:24;;;;;;;141.27;57.07;;;3.80;99.90;;;;;;5072152;28;20620;-67
2022/11/25 05:01:44;;;;;;;137.00;55.77;;;3.80;99.90;;;;;;5072018;28;20253;-67
2022/11/25 05:04:47;;;;;;;122.73;52.03;;;3.70;99.90;;;;;;5039079;28;20207;-69
2022/11/25 05:07:18;;;;;;;107.83;51.07;;;3.60;99.90;;;;;;5009288;28;20202;-74
2022/11/25 05:09:49;;;;;;;124.10;51.27;;;3.60;99.90;;;;;;4992858;28;20204;-67
2022/11/25 05:12:27;;;;;;;110.73;48.50;;;3.50;99.90;;;;;;4990898;28;20292;-66
2022/11/25 05:14:56;;;;;;;118.27;52.43;;;3.40;99.90;;;;;;5012923;28;20253;-74
2022/11/25 05:17:27;;;;;;;120.70;52.20;;;3.40;99.90;;;;;;4984666;28;20319;-84
2022/11/25 05:19:56;;;;;;;117.10;52.67;;;3.40;99.90;;;;;;5008855;28;20200;-67
2022/11/25 05:22:28;;;;;;;127.47;52.30;;;3.40;99.90;;;;;;4992310;28;20212;-80
2022/11/25 05:24:57;;;;;;;123.27;54.17;;;3.30;99.90;;;;;;5009872;28;20279;-74
2022/11/25 05:27:27;;;;;;;130.60;55.23;;;3.30;99.90;;;;;;5011516;28;20726;-67
2022/11/25 05:29:58;;;;;;;127.97;53.03;;;3.30;99.90;;;;;;4992620;28;20264;-67
2022/11/25 05:32:26;;;;;;;115.73;52.47;;;3.30;99.90;;;;;;5009090;28;20202;-67
2022/11/25 05:34:58;;;;;;;124.10;54.53;;;3.30;99.90;;;;;;5022827;28;20234;-68
2022/11/25 05:37:28;;;;;;;126.70;54.47;;;3.30;99.90;;;;;;5048030;28;20309;-68
2022/11/25 05:40:04;;;;;;;120.77;54.53;;;3.30;99.90;;;;;;5052002;28;20204;-74
2022/11/25 05:42:55;;;;;;;126.40;53.63;;;3.40;99.90;;;;;;5049182;28;20215;-67
2022/11/25 05:45:24;;;;;;;113.70;53.30;;;3.40;99.90;;;;;;5049223;28;20642;-67
2022/11/25 05:47:53;;;;;;;131.23;58.53;;;3.40;99.90;;;;;;5048938;28;20234;-67
2022/11/25 05:50:24;;;;;;;122.87;52.80;;;3.40;99.90;;;;;;5049132;28;20199;-68
2022/11/25 05:53:17;;;;;;;118.67;52.03;;;3.40;99.90;;;;;;5049227;28;20199;-78
2022/11/25 05:55:55;;;;;;;122.03;52.77;;;3.40;99.90;;;;;;5033792;28;20194;-67
2022/11/25 05:58:41;;;;;;;114.70;51.67;;;3.40;99.90;;;;;;5036444;28;20234;-75
2022/11/25 06:01:11;;;;;;;127.03;52.07;;;3.40;99.90;;;;;;5053114;28;20562;-69
2022/11/25 06:03:40;;;;;;;120.17;53.57;;;3.40;99.90;;;;;;5052966;28;20257;-80
2022/11/25 06:06:10;;;;;;;112.47;52.07;;;3.40;99.90;;;;;;5052902;28;20256;-73
2022/11/25 06:08:40;;;;;;;117.73;52.60;;;3.40;99.90;;;;;;5036199;28;20624;-74
2022/11/25 06:11:11;;;;;;;104.47;48.47;;;3.40;99.90;;;;;;5052740;28;20204;-73
2022/11/25 06:13:40;;;;;;;102.67;49.10;;;3.40;99.90;;;;;;5035897;28;20203;-69
2022/11/25 06:16:10;;;;;;;104.83;48.20;;;3.40;99.90;;;;;;5052519;28;20204;-68
2022/11/25 06:18:39;;;;;;;103.23;45.67;;;3.40;99.90;;;;;;5036232;28;20230;-81
2022/11/25 06:21:11;;;;;;;95.20;46.00;;;3.40;99.90;;;;;;5108948;28;20674;-68
2022/11/25 06:23:41;;;;;;;95.90;44.47;;;3.50;99.90;;;;;;5115507;28;20191;-72
2022/11/25 06:26:12;;;;;;;88.87;43.73;;;3.50;99.90;;;;;;5114007;28;20210;-68
2022/11/25 06:28:41;;;;;;;90.77;42.07;;;3.50;99.90;;;;;;5114049;28;20217;-84
2022/11/25 06:31:12;;;;;;;88.90;43.17;;;3.60;99.90;;;;;;5113760;28;20201;-68
2022/11/25 06:33:49;;;;;;;89.53;43.50;;;3.80;99.90;;;;;;5113456;28;20224;-68
2022/11/25 06:36:19;;;;;;;87.90;43.50;;;3.70;99.90;;;;;;5113759;28;20301;-68
2022/11/25 06:38:50;;;;;;;91.80;44.13;;;3.70;99.90;;;;;;5115109;28;20577;-79
2022/11/25 06:41:19;;;;;;;94.57;46.47;;;3.60;99.90;;;;;;5115059;28;20204;-72
2022/11/25 06:43:47;;;;;;;95.17;44.23;;;3.70;99.90;;;;;;5114767;28;20201;-68
2022/11/25 06:46:18;;;;;;;97.90;46.30;;;3.80;99.90;;;;;;5115073;28;20189;-68
2022/11/25 06:48:51;;;;;;;101.23;49.43;;;3.90;99.90;;;;;;5114869;28;20271;-71
2022/11/25 06:51:20;;;;;;;95.73;45.23;;;4.00;99.90;;;;;;5115082;28;20190;-69
2022/11/25 06:53:49;;;;;;;101.80;47.53;;;4.00;99.90;;;;;;5114870;28;20188;-67
2022/11/25 06:56:20;;;;;;;95.80;45.60;;;4.00;99.90;;;;;;5114767;28;20197;-72
2022/11/25 06:58:49;;;;;;;100.67;47.37;;;3.90;99.90;;;;;;5114839;28;20557;-83
2022/11/25 07:01:20;;;;;;;115.37;51.57;;;3.90;99.90;;;;;;5114970;28;20206;-71
2022/11/25 07:03:50;;;;;;;112.73;51.30;;;3.90;99.90;;;;;;5114779;28;20196;-67
2022/11/25 07:06:20;;;;;;;105.53;51.73;;;3.90;99.90;;;;;;5114081;28;20197;-67
2022/11/25 07:08:49;;;;;;;116.60;50.30;;;3.90;99.90;;;;;;5114462;28;20196;-76
2022/11/25 07:11:20;;;;;;;102.07;50.97;;;3.90;99.90;;;;;;5114738;28;20241;-83
2022/11/25 07:13:51;;;;;;;108.17;49.90;;;3.80;99.90;;;;;;5114394;28;20201;-68
2022/11/25 07:16:20;;;;;;;106.77;50.57;;;3.90;99.90;;;;;;5114447;28;20197;-68
2022/11/25 07:18:49;;;;;;;99.03;49.30;;;3.90;99.90;;;;;;5114391;28;20215;-71
2022/11/25 07:21:18;;;;;;;98.73;50.63;;;4.00;99.90;;;;;;5114270;28;20673;-81
2022/11/25 07:23:49;;;;;;;95.43;47.70;;;3.90;99.90;;;;;;5114545;28;20201;-79
2022/11/25 07:26:20;;;;;;;93.63;47.33;;;3.90;99.90;;;;;;5114245;28;20210;-73
2022/11/25 07:28:49;;;;;;;95.30;48.23;;;3.80;99.90;;;;;;5114298;28;20238;-81
2022/11/25 07:31:21;;;;;;;89.83;45.23;;;3.80;99.90;;;;;;5114125;28;20258;-68
2022/11/25 07:33:52;;;;;;;74.70;41.53;;;3.80;99.90;;;;;;5113871;28;20260;-75
2022/11/25 07:36:21;;;;;;;86.57;44.97;;;3.70;99.90;;;;;;5113883;28;20211;-67
2022/11/25 07:38:51;;;;;;;76.70;39.30;;;3.80;99.90;;;;;;5113881;28;20232;-67
2022/11/25 07:41:22;;;;;;;88.70;46.03;;;3.90;99.90;;;;;;5113883;28;20659;-67
2022/11/25 07:43:52;;;;;;;86.53;44.63;;;4.00;99.90;;;;;;5113792;28;20225;-70
2022/11/25 07:46:25;;;;;;;82.30;44.20;;;4.10;99.90;;;;;;5112458;28;20205;-67
2022/11/25 07:48:55;;;;;;;174.23;87.37;;;4.10;99.90;;;;;;5113647;28;20185;-68
2022/11/25 07:51:27;;;;;;;228.47;109.83;;;4.10;99.90;;;;;;5113635;28;20686;-67
2022/11/25 07:53:58;;;;;;;149.97;80.43;;;4.20;99.90;;;;;;5113706;28;20567;-70
2022/11/25 07:56:27;;;;;;;102.47;56.00;;;4.30;99.90;;;;;;5113647;28;20206;-75
2022/11/25 07:58:57;;;;;;;109.07;53.23;;;4.40;99.90;;;;;;5113432;28;20222;-80
2022/11/25 08:01:25;;;;;;;113.63;54.17;;;4.40;99.90;;;;;;5113501;28;20210;-79
2022/11/25 08:03:54;;;;;;;130.80;65.07;;;4.30;99.90;;;;;;5113449;28;20232;-72
2022/11/25 08:06:24;;;;;;;130.37;63.33;;;4.40;99.90;;;;;;5113442;28;20189;-74
2022/11/25 08:08:54;;;;;;;114.07;57.37;;;4.40;99.90;;;;;;5113377;28;20684;-77
2022/11/25 08:11:27;;;;;;;101.63;52.13;;;4.40;99.90;;;;;;5113248;28;20240;-68
2022/11/25 08:13:56;;;;;;;98.10;47.37;;;4.40;99.90;;;;;;5113302;28;20613;-84
2022/11/25 08:16:26;;;;;;;110.30;53.47;;;4.30;99.90;;;;;;5113497;28;20611;-67
2022/11/25 08:18:55;;;;;;;95.97;46.77;;;4.10;99.90;;;;;;5112440;28;20239;-71
2022/11/25 08:21:23;;;;;;;93.63;45.13;;;4.10;99.90;;;;;;5113004;28;20198;-69
2022/11/25 08:23:52;;;;;;;95.60;47.20;;;4.10;99.90;;;;;;5113132;28;20538;-79
2022/11/25 08:26:23;;;;;;;95.37;48.50;;;4.00;99.90;;;;;;5112928;28;20209;-72
2022/11/25 08:28:53;;;;;;;93.97;48.87;;;4.00;99.90;;;;;;5113232;28;20208;-68
2022/11/25 08:31:23;;;;;;;83.53;44.37;;;4.10;99.90;;;;;;5112970;28;20555;-78
2022/11/25 08:33:52;;;;;;;88.33;42.90;;;4.10;99.90;;;;;;5112574;28;20232;-79
2022/11/25 08:36:21;;;;;;;82.77;44.87;;;4.10;99.90;;;;;;5112885;27;20585;-67
2022/11/25 08:38:52;;;;;;;75.47;42.33;;;4.10;99.90;;;;;;5112868;28;20316;-67
2022/11/25 08:41:23;;;;;;;95.87;45.40;;;4.10;99.90;;;;;;5112880;28;20215;-73
2022/11/25 08:43:53;;;;;;;87.60;45.90;;;4.10;99.90;;;;;;5113006;28;20197;-76
2022/11/25 08:46:23;;;;;;;95.23;46.97;;;4.00;99.90;;;;;;5112879;28;20218;-70
2022/11/25 08:48:52;;;;;;;93.17;46.60;;;4.00;99.90;;;;;;5112722;28;20186;-71
2022/11/25 08:51:24;;;;;;;107.40;53.87;;;4.00;99.90;;;;;;5111414;28;20208;-81
2022/11/25 08:53:52;;;;;;;104.57;54.77;;;4.00;99.90;;;;;;5112715;28;20197;-82
2022/11/25 08:56:22;;;;;;;116.50;60.43;;;4.00;99.90;;;;;;5112896;28;20195;-75
2022/11/25 08:58:55;;;;;;;107.83;56.23;;;4.00;99.90;;;;;;5112380;28;20241;-83
2022/11/25 09:01:24;;;;;;;95.80;49.03;;;4.00;99.90;;;;;;5112582;28;20191;-81
2022/11/25 09:03:55;;;;;;;103.80;48.87;;;4.00;99.90;;;;;;5112610;28;20196;-84
2022/11/25 09:06:25;;;;;;;90.00;47.07;;;4.00;99.90;;;;;;5112508;28;20198;-69
2022/11/25 09:08:56;;;;;;;95.83;50.57;;;4.10;99.90;;;;;;5112783;28;20209;-67
2022/11/25 09:11:25;;;;;;;91.93;47.13;;;4.00;99.90;;;;;;5112800;28;20370;-67
2022/11/25 09:13:55;;;;;;;101.03;48.10;;;4.00;99.90;;;;;;5113110;28;20207;-78
2022/11/25 09:16:23;;;;;;;93.70;49.07;;;4.10;99.90;;;;;;5112534;28;20296;-76
2022/11/25 09:18:54;;;;;;;98.57;46.80;;;4.10;99.90;;;;;;5112643;28;20194;-75
2022/11/25 09:21:24;;;;;;;91.87;46.10;;;4.00;99.90;;;;;;5112237;28;20232;-81
2022/11/25 09:23:54;;;;;;;91.97;46.03;;;4.10;99.90;;;;;;5112413;28;20228;-69
2022/11/25 09:26:24;;;;;;;95.70;47.80;;;4.10;99.90;;;;;;5111861;28;20197;-70
2022/11/25 09:28:53;;;;;;;104.97;48.93;;;4.00;99.90;;;;;;5111893;28;20214;-68
2022/11/25 09:31:24;;;;;;;97.37;48.20;;;4.00;99.90;;;;;;5111900;28;20196;-77
2022/11/25 09:33:53;;;;;;;108.10;48.27;;;4.00;99.90;;;;;;5111765;28;20367;-69
2022/11/25 09:36:22;;;;;;;96.20;46.57;;;4.10;99.90;;;;;;5111844;28;20202;-68
2022/11/25 09:38:51;;;;;;;106.80;47.57;;;4.10;99.90;;;;;;5112071;28;20633;-70
2022/11/25 09:47:37;;;;;;;114.70;49.63;;;4.10;99.90;;;;;;5112018;28;20228;-75
2022/11/25 09:50:17;;;;;;;109.37;49.20;;;4.20;99.90;;;;;;5111947;28;20199;-68
2022/11/25 09:53:04;;;;;;;113.27;49.43;;;4.10;99.90;;;;;;5112052;28;20297;-68
2022/11/25 09:55:38;;;;;;;103.03;49.47;;;4.20;99.90;;;;;;5111896;28;20291;-80
2022/11/25 09:58:19;;;;;;;111.87;51.10;;;4.20;99.90;;;;;;5112045;28;20667;-73
2022/11/25 10:00:49;;;;;;;112.33;52.27;;;4.20;99.90;;;;;;5111634;28;20714;-72
2022/11/25 10:03:32;;;;;;;105.17;51.90;;;4.20;99.90;;;;;;5111633;28;20297;-68
2022/11/25 10:06:06;;;;;;;109.37;52.23;;;4.20;99.90;;;;;;5111273;28;20199;-78
2022/11/25 10:08:38;;;;;;;117.80;52.43;;;4.20;99.90;;;;;;5111713;28;20571;-70
2022/11/25 10:11:17;;;;;;;115.30;55.87;;;4.30;99.90;;;;;;5111520;28;20273;-78
2022/11/25 10:13:51;;;;;;;117.93;54.63;;;4.30;99.90;;;;;;5111705;28;20230;-78
2022/11/25 10:16:34;;;;;;;120.20;53.83;;;4.30;99.90;;;;;;5111535;28;20724;-76
2022/11/25 10:19:13;;;;;;;115.33;56.47;;;4.40;99.90;;;;;;5111603;28;20244;-69
2022/11/25 10:21:42;;;;;;;127.10;60.33;;;4.50;99.90;;;;;;5111304;28;20366;-71
2022/11/25 10:24:15;;;;;;;128.83;60.07;;;4.50;99.90;;;;;;5111387;28;20243;-68
2022/11/25 10:26:47;;;;;;;117.87;57.83;;;4.50;99.90;;;;;;5111444;28;20203;-77
2022/11/25 10:29:28;;;;;;;126.90;61.03;;;4.60;99.90;;;;;;5111454;28;20203;-67
2022/11/25 10:32:20;;;;;;;125.70;62.80;;;4.60;99.90;;;;;;5093131;28;20546;-85
2022/11/25 10:34:54;;;;;;;138.27;67.60;;;4.60;99.90;;;;;;5111119;28;20592;-78
2022/11/25 10:37:30;;;;;;;124.23;62.33;;;4.60;99.90;;;;;;5111372;28;20208;-67
2022/11/25 10:39:59;;;;;;;113.93;58.93;;;4.60;99.90;;;;;;5111377;28;20209;-67
2022/11/25 10:42:29;;;;;;;116.63;58.67;;;4.60;99.90;;;;;;5113722;28;20681;-74
2022/11/25 10:44:57;;;;;;;119.60;57.00;;;4.60;99.90;;;;;;5115134;28;20577;-68
2022/11/25 10:47:35;;;;;;;124.53;56.70;;;4.60;99.90;;;;;;5115134;28;20818;-73
2022/11/25 10:50:25;;;;;;;115.23;55.60;;;4.50;99.90;;;;;;5115068;28;20241;-74
2022/11/25 10:52:58;;;;;;;106.97;54.80;;;4.60;99.90;;;;;;5115070;27;20200;-74
2022/11/25 10:55:30;;;;;;;112.70;56.17;;;4.60;99.90;;;;;;5115062;28;20190;-67
2022/11/25 10:57:59;;;;;;;109.60;56.23;;;4.60;99.90;;;;;;5114948;28;20251;-67
2022/11/25 11:00:31;;;;;;;99.80;51.30;;;4.60;99.90;;;;;;5114997;28;20814;-67
2022/11/25 11:03:12;;;;;;;107.03;51.67;;;4.60;99.90;;;;;;5114926;28;20288;-70
2022/11/25 11:05:50;;;;;;;107.10;53.00;;;4.60;99.90;;;;;;5114572;28;20248;-69
2022/11/25 11:08:22;;;;;;;105.17;50.90;;;4.70;99.90;;;;;;5114553;28;20277;-68
2022/11/25 11:11:10;;;;;;;109.10;49.83;;;4.60;99.90;;;;;;5114501;28;20760;-80
2022/11/25 11:13:38;;;;;;;113.47;50.80;;;4.60;99.90;;;;;;5114664;28;20205;-69
2022/11/25 11:16:23;;;;;;;97.83;46.57;;;4.60;99.90;;;;;;5114543;28;20287;-82
2022/11/25 11:18:52;;;;;;;101.43;46.37;;;4.60;99.90;;;;;;5114378;28;20213;-70
2022/11/25 11:21:28;;;;;;;99.00;48.17;;;4.60;99.90;;;;;;5114285;28;20231;-83
2022/11/25 11:23:58;;;;;;;93.23;44.40;;;4.60;99.90;;;;;;5114276;28;20211;-85
2022/11/25 11:26:29;;;;;;;84.30;44.90;;;4.60;99.90;;;;;;5114259;28;20283;-67
2022/11/25 11:29:00;;;;;;;83.10;41.83;;;4.70;99.90;;;;;;5114286;28;20208;-68
2022/11/25 11:31:33;;;;;;;81.10;40.67;;;4.70;99.90;;;;;;5113975;28;20291;-79
2022/11/25 11:34:23;;;;;;;84.43;40.33;;;4.70;99.90;;;;;;5113981;28;20258;-74
2022/11/25 11:37:06;;;;;;;82.87;39.10;;;4.70;99.90;;;;;;5114356;28;20206;-71
2022/11/25 11:39:58;;;;;;;76.23;35.97;;;4.70;99.90;;;;;;5114208;28;20266;-67
2022/11/25 11:42:40;;;;;;;76.43;36.03;;;4.70;99.90;;;;;;5114208;28;20221;-68
2022/11/25 11:45:24;;;;;;;81.03;38.97;;;4.70;99.90;;;;;;5114314;28;20193;-67
2022/11/25 11:48:03;;;;;;;83.40;39.50;;;4.70;99.90;;;;;;5113886;28;20195;-67
2022/11/25 11:50:34;;;;;;;82.60;39.13;;;4.80;99.90;;;;;;5113870;28;20287;-67
2022/11/25 11:53:11;;;;;;;71.23;37.43;;;4.80;99.90;;;;;;5113911;28;20205;-71
2022/11/25 11:55:50;;;;;;;85.27;41.07;;;4.80;99.90;;;;;;5113727;28;20197;-68
2022/11/25 11:58:54;;;;;;;80.47;40.13;;;4.80;99.90;;;;;;5113566;28;20230;-67
2022/11/25 12:01:38;;;;;;;85.20;41.07;;;4.80;99.90;;;;;;5113819;28;20286;-69
2022/11/25 12:04:17;;;;;;;76.93;39.27;;;4.90;99.90;;;;;;5113672;28;20689;-73
2022/11/25 12:06:56;;;;;;;90.23;42.93;;;4.90;99.90;;;;;;5113433;28;20209;-67
2022/11/25 12:09:29;;;;;;;88.07;42.13;;;4.90;99.90;;;;;;5113571;28;20216;-74
2022/11/25 12:12:04;;;;;;;77.13;37.67;;;4.90;99.90;;;;;;5113248;28;20733;-66
2022/11/25 12:14:39;;;;;;;82.87;40.67;;;5.00;99.90;;;;;;5113251;28;20276;-73
2022/11/25 12:17:13;;;;;;;83.60;38.63;;;5.00;99.90;;;;;;5113114;28;20234;-69
2022/11/25 12:19:49;;;;;;;82.80;41.77;;;5.00;99.90;;;;;;5111780;28;20224;-68
2022/11/25 12:22:24;;;;;;;85.40;40.77;;;5.00;99.90;;;;;;5113050;28;20230;-68
2022/11/25 12:25:03;;;;;;;87.27;40.93;;;5.00;99.90;;;;;;5113144;28;20280;-68
2022/11/25 12:27:36;;;;;;;85.30;42.83;;;5.00;99.90;;;;;;5113071;28;20194;-72
2022/11/25 12:30:07;;;;;;;78.23;40.93;;;5.00;99.90;;;;;;5112900;28;20634;-68
2022/11/25 12:32:51;;;;;;;94.87;44.03;;;5.00;99.90;;;;;;5112901;28;20194;-69
2022/11/25 12:35:27;;;;;;;81.73;40.60;;;5.00;99.90;;;;;;5112597;28;20645;-68
2022/11/25 12:38:04;;;;;;;73.07;39.30;;;5.00;99.90;;;;;;5112670;28;20199;-68
2022/11/25 12:40:41;;;;;;;78.10;38.50;;;5.00;99.90;;;;;;5112863;28;20200;-68
2022/11/25 12:43:24;;;;;;;68.80;37.60;;;5.00;99.90;;;;;;5112928;28;20620;-69
2022/11/25 12:46:16;;;;;;;75.93;39.73;;;5.00;99.90;;;;;;5112900;28;20296;-70
2022/11/25 12:48:44;;;;;;;79.43;39.50;;;4.90;99.90;;;;;;5112914;28;20199;-68
2022/11/25 12:51:25;;;;;;;74.70;37.27;;;5.00;99.90;;;;;;5112709;28;20267;-68
2022/11/25 12:54:09;;;;;;;75.43;37.43;;;5.10;99.90;;;;;;5112696;28;20189;-77
2022/11/25 12:56:53;;;;;;;74.90;37.30;;;5.20;99.90;;;;;;5112576;28;20261;-79
2022/11/25 12:59:41;;;;;;;73.27;37.03;;;5.20;99.90;;;;;;5112549;28;20207;-67
2022/11/25 13:02:35;;;;;;;77.13;37.20;;;5.20;99.90;;;;;;5112595;28;20728;-76
2022/11/25 13:05:26;;;;;;;72.20;36.30;;;5.30;99.90;;;;;;5112040;28;20195;-68
2022/11/25 13:08:19;;;;;;;73.07;35.70;;;5.30;99.90;;;;;;5112293;28;20193;-68
2022/11/25 13:11:03;;;;;;;72.90;36.97;;;5.30;99.90;;;;;;5112309;28;20186;-77